This is the latest recevied weather packets stored in our database for station/object N2UFM. If no packets are shown the sender has not sent any weather packets the latest 10 day(s).
| Time | Temp. | Humidity | Pressure | Rain* | Wind** | Luminosity | Snow |
|---|---|---|---|---|---|---|---|
| 1777671367 | 16.11° C | 65% | 1012 hPa | 0 mm | - | - | - |
| 1777671067 | 15.56° C | 66% | 1011.9 hPa | 0 mm | - | - | - |
| 1777670766 | 15.56° C | 66% | 1012 hPa | 0 mm | - | - | - |
| 1777670466 | 15.56° C | 65% | 1012 hPa | 0 mm | - | - | - |
| 1777670166 | 16.11° C | 64% | 1012 hPa | 0 mm | - | - | - |
| 1777669866 | 16.11° C | 61% | 1011.9 hPa | 0 mm | - | - | - |
| 1777669566 | 16.11° C | 62% | 1011.9 hPa | 0 mm | - | - | - |
| 1777669266 | 16.67° C | 62% | 1011.9 hPa | 0 mm | - | - | - |
| 1777668966 | 16.11° C | 62% | 1011.8 hPa | 0 mm | - | - | - |
| 1777668665 | 16.11° C | 64% | 1011.8 hPa | 0 mm | - | - | - |
| 1777668365 | 16.11° C | 63% | 1011.9 hPa | 0 mm | - | - | - |
| 1777668065 | 16.11° C | 65% | 1012 hPa | 0 mm | - | - | - |
| 1777667765 | 15.56° C | 65% | 1012 hPa | 0 mm | - | - | - |
| 1777667465 | 16.11° C | 64% | 1012 hPa | 0 mm | - | - | - |
| 1777667165 | 15.56° C | 64% | 1012 hPa | 0 mm | - | - | - |
| 1777666864 | 15.56° C | 63% | 1012 hPa | 0 mm | - | - | - |
| 1777666564 | 16.11° C | 61% | 1012 hPa | 0 mm | - | - | - |
| 1777666264 | 16.11° C | 60% | 1012 hPa | 0 mm | - | - | - |
| 1777665964 | 16.67° C | 58% | 1012.1 hPa | 0 mm | - | - | - |
| 1777665664 | 17.22° C | 54% | 1012.1 hPa | 0 mm | - | - | - |
| 1777665364 | 18.33° C | 51% | 1012.1 hPa | 0 mm | - | - | - |
| 1777665063 | 18.89° C | 47% | 1012.1 hPa | 0 mm | - | - | - |
| 1777664763 | 19.44° C | 40% | 1012.2 hPa | 0 mm | - | - | - |
| 1777664463 | 20° C | 39% | 1012.1 hPa | 0 mm | - | - | - |
| 1777664163 | 20° C | 39% | 1012.1 hPa | 0 mm | - | - | - |
* Rain latest hour (hover to see other rain measurements)
** Current wind speed in m/s (hover to see current wind gust speed)